TVF34TB LDZA-LFPG
Flight info
| Callsign | TVF34TB |
|---|---|
| Flight time | 1h 35m |
| Altitude | 38000 |
| Route | PODET DCT KLAGY DCT ERKIR L608 KPT L856 AKABI/N0456F370 L856 ROMIR DCT REFEL/N0451F380 DCT RESPO DCT TRO |
| Aircraft | B738/M-SDE2E3FGHIRWXY/LB1 |
Departure
| Time | 2026-05-08 21:47 |
|---|---|
| Airport | Zagreb Franjo Tuđman International Airport (LDZA) |
Arrival
| Time | 2026-05-08 23:22 |
|---|---|
| Airport | Charles de Gaulle International Airport (LFPG) |
| Time | Latitude | Longitude | Altitude | Speed | Heading |
|---|---|---|---|---|---|
| 2026-05-08 21:37 | 45.73998 | 16.07558 | 353 ft | 0 kts | 134° |
| 2026-05-08 21:40 | 45.73999 | 16.07557 | 353 ft | 2 kts | 134° |
| 2026-05-08 21:40 | 45.74016 | 16.07532 | 360 ft | 4 kts | 133° |
| 2026-05-08 21:40 | 45.74033 | 16.07505 | 359 ft | 4 kts | 133° |
| 2026-05-08 21:41 | 45.74068 | 16.07484 | 359 ft | 4 kts | 205° |
| 2026-05-08 21:41 | 45.74083 | 16.07498 | 357 ft | 0 kts | 227° |
| 2026-05-08 21:43 | 45.74071 | 16.07479 | 360 ft | 7 kts | 230° |
| 2026-05-08 21:43 | 45.74077 | 16.07390 | 358 ft | 14 kts | 312° |
| 2026-05-08 21:43 | 45.74158 | 16.07282 | 356 ft | 16 kts | 316° |
| 2026-05-08 21:43 | 45.74209 | 16.07153 | 359 ft | 15 kts | 252° |
| 2026-05-08 21:44 | 45.74131 | 16.07022 | 358 ft | 23 kts | 226° |
| 2026-05-08 21:44 | 45.74009 | 16.06837 | 356 ft | 26 kts | 226° |
| 2026-05-08 21:44 | 45.73890 | 16.06655 | 356 ft | 24 kts | 227° |
| 2026-05-08 21:44 | 45.73777 | 16.06486 | 362 ft | 25 kts | 226° |
| 2026-05-08 21:45 | 45.73642 | 16.06284 | 362 ft | 30 kts | 226° |
| 2026-05-08 21:45 | 45.73496 | 16.06065 | 359 ft | 30 kts | 226° |
| 2026-05-08 21:45 | 45.73358 | 16.05854 | 357 ft | 30 kts | 227° |
| 2026-05-08 21:45 | 45.73191 | 16.05595 | 365 ft | 32 kts | 226° |
| 2026-05-08 21:46 | 45.73098 | 16.05383 | 362 ft | 21 kts | 274° |
| 2026-05-08 21:46 | 45.73167 | 16.05251 | 366 ft | 14 kts | 319° |
| 2026-05-08 21:46 | 45.73231 | 16.05265 | 368 ft | 11 kts | 48° |
| 2026-05-08 21:46 | 45.73336 | 16.05424 | 363 ft | 52 kts | 46° |
| 2026-05-08 21:47 | 45.73763 | 16.06071 | 366 ft | 124 kts | 46° |
| 2026-05-08 21:47 | 45.74499 | 16.07190 | 408 ft | 179 kts | 46° |
| 2026-05-08 21:47 | 45.75366 | 16.08524 | 1171 ft | 186 kts | 47° |
| 2026-05-08 21:47 | 45.76223 | 16.09855 | 2227 ft | 177 kts | 47° |
| 2026-05-08 21:48 | 45.77082 | 16.11176 | 2968 ft | 188 kts | 47° |
| 2026-05-08 21:48 | 45.77999 | 16.12569 | 3706 ft | 195 kts | 47° |
| 2026-05-08 21:48 | 45.78998 | 16.14042 | 4062 ft | 218 kts | 46° |
| 2026-05-08 21:48 | 45.80131 | 16.15658 | 4381 ft | 239 kts | 40° |
| 2026-05-08 21:49 | 45.81675 | 16.16601 | 4967 ft | 252 kts | 6° |
| 2026-05-08 21:49 | 45.83447 | 16.16159 | 5758 ft | 270 kts | 334° |
| 2026-05-08 21:49 | 45.84942 | 16.14480 | 6922 ft | 276 kts | 315° |
| 2026-05-08 21:49 | 45.86255 | 16.12470 | 8231 ft | 277 kts | 312° |
| 2026-05-08 21:50 | 45.87552 | 16.10386 | 9427 ft | 284 kts | 311° |
| 2026-05-08 21:50 | 45.88883 | 16.08226 | 10443 ft | 293 kts | 311° |
| 2026-05-08 21:50 | 45.90286 | 16.05952 | 10963 ft | 320 kts | 311° |
| 2026-05-08 21:50 | 45.91840 | 16.03441 | 11217 ft | 353 kts | 311° |
| 2026-05-08 21:51 | 45.93545 | 16.00696 | 11462 ft | 383 kts | 311° |
| 2026-05-08 21:51 | 45.95359 | 15.97781 | 12101 ft | 397 kts | 311° |
| 2026-05-08 21:51 | 45.97191 | 15.94842 | 13032 ft | 402 kts | 311° |
| 2026-05-08 21:51 | 45.99069 | 15.91827 | 13998 ft | 406 kts | 311° |
| 2026-05-08 21:52 | 46.00965 | 15.88784 | 14814 ft | 411 kts | 311° |
| 2026-05-08 21:52 | 46.02884 | 15.85700 | 15599 ft | 416 kts | 311° |
| 2026-05-08 21:52 | 46.04822 | 15.82582 | 16359 ft | 420 kts | 311° |
| 2026-05-08 21:52 | 46.06786 | 15.79419 | 17088 ft | 425 kts | 311° |
| 2026-05-08 21:53 | 46.08765 | 15.76226 | 17771 ft | 430 kts | 311° |
| 2026-05-08 21:53 | 46.10765 | 15.72997 | 18438 ft | 435 kts | 311° |
| 2026-05-08 21:53 | 46.12783 | 15.69735 | 19008 ft | 438 kts | 311° |
| 2026-05-08 21:53 | 46.14824 | 15.66434 | 19630 ft | 441 kts | 311° |
| 2026-05-08 21:54 | 46.16844 | 15.63108 | 20195 ft | 442 kts | 308° |
| 2026-05-08 21:54 | 46.18591 | 15.59453 | 20670 ft | 444 kts | 300° |
| 2026-05-08 21:54 | 46.20153 | 15.55605 | 21127 ft | 446 kts | 298° |
| 2026-05-08 21:54 | 46.21704 | 15.51704 | 21592 ft | 448 kts | 298° |
| 2026-05-08 21:55 | 46.23257 | 15.47796 | 22057 ft | 450 kts | 298° |
| 2026-05-08 21:55 | 46.24823 | 15.43874 | 22521 ft | 452 kts | 298° |
| 2026-05-08 21:55 | 46.26404 | 15.39940 | 22967 ft | 454 kts | 298° |
| 2026-05-08 21:56 | 46.29595 | 15.32040 | 23773 ft | 458 kts | 298° |
| 2026-05-08 21:56 | 46.31213 | 15.28036 | 24111 ft | 460 kts | 298° |
| 2026-05-08 21:56 | 46.32827 | 15.24040 | 24428 ft | 462 kts | 298° |
| 2026-05-08 21:56 | 46.34432 | 15.20061 | 24732 ft | 464 kts | 298° |
| 2026-05-08 21:57 | 46.36084 | 15.15955 | 25052 ft | 467 kts | 298° |
| 2026-05-08 21:57 | 46.37697 | 15.11941 | 25337 ft | 469 kts | 298° |
| 2026-05-08 21:57 | 46.39341 | 15.07844 | 25647 ft | 471 kts | 297° |
| 2026-05-08 21:57 | 46.41010 | 15.03678 | 25972 ft | 472 kts | 297° |
| 2026-05-08 21:58 | 46.42653 | 14.99571 | 26358 ft | 471 kts | 297° |
| 2026-05-08 21:58 | 46.44292 | 14.95469 | 26800 ft | 469 kts | 297° |
| 2026-05-08 21:58 | 46.45898 | 14.91440 | 27220 ft | 468 kts | 297° |
| 2026-05-08 21:58 | 46.47524 | 14.87358 | 27608 ft | 467 kts | 297° |
| 2026-05-08 21:59 | 46.49147 | 14.83275 | 28012 ft | 466 kts | 297° |
| 2026-05-08 21:59 | 46.50762 | 14.79208 | 28439 ft | 465 kts | 296° |
| 2026-05-08 21:59 | 46.52369 | 14.75141 | 28854 ft | 464 kts | 296° |
| 2026-05-08 21:59 | 46.53957 | 14.71075 | 29315 ft | 462 kts | 296° |
| 2026-05-08 22:00 | 46.55533 | 14.67009 | 29748 ft | 461 kts | 296° |
| 2026-05-08 22:00 | 46.57102 | 14.62951 | 30162 ft | 460 kts | 295° |
| 2026-05-08 22:00 | 46.58664 | 14.58901 | 30537 ft | 459 kts | 295° |
| 2026-05-08 22:00 | 46.60176 | 14.54843 | 30928 ft | 455 kts | 292° |
| 2026-05-08 22:01 | 46.61494 | 14.50679 | 31336 ft | 451 kts | 290° |
| 2026-05-08 22:01 | 46.62724 | 14.46491 | 31722 ft | 449 kts | 289° |
| 2026-05-08 22:01 | 46.63920 | 14.42299 | 32078 ft | 448 kts | 289° |
| 2026-05-08 22:01 | 46.65111 | 14.38111 | 32430 ft | 447 kts | 289° |
| 2026-05-08 22:02 | 46.66307 | 14.33940 | 32808 ft | 445 kts | 290° |
| 2026-05-08 22:02 | 46.67504 | 14.29797 | 33189 ft | 444 kts | 290° |
| 2026-05-08 22:02 | 46.68707 | 14.25665 | 33548 ft | 443 kts | 290° |
| 2026-05-08 22:02 | 46.69903 | 14.21578 | 34261 ft | 432 kts | 290° |
| 2026-05-08 22:03 | 46.71071 | 14.17592 | 34773 ft | 427 kts | 290° |
| 2026-05-08 22:03 | 46.72233 | 14.13623 | 35134 ft | 423 kts | 290° |
| 2026-05-08 22:03 | 46.73379 | 14.09700 | 35565 ft | 419 kts | 290° |
| 2026-05-08 22:03 | 46.74514 | 14.05809 | 35993 ft | 415 kts | 290° |
| 2026-05-08 22:04 | 46.75635 | 14.01960 | 36434 ft | 410 kts | 290° |
| 2026-05-08 22:04 | 46.76741 | 13.98153 | 36897 ft | 405 kts | 290° |
| 2026-05-08 22:04 | 46.77831 | 13.94399 | 37344 ft | 400 kts | 290° |
| 2026-05-08 22:04 | 46.78907 | 13.90686 | 37804 ft | 394 kts | 290° |
| 2026-05-08 22:05 | 46.79965 | 13.87031 | 38272 ft | 387 kts | 290° |
| 2026-05-08 22:05 | 46.81003 | 13.83440 | 38756 ft | 381 kts | 290° |
| 2026-05-08 22:05 | 46.82021 | 13.79911 | 39135 ft | 374 kts | 290° |
| 2026-05-08 22:05 | 46.83020 | 13.76444 | 39457 ft | 369 kts | 290° |
| 2026-05-08 22:06 | 46.84025 | 13.72944 | 39255 ft | 381 kts | 290° |
| 2026-05-08 22:06 | 46.85066 | 13.69326 | 39112 ft | 390 kts | 291° |
| 2026-05-08 22:06 | 46.86134 | 13.65652 | 39086 ft | 396 kts | 290° |
| 2026-05-08 22:07 | 46.88289 | 13.58135 | 39106 ft | 405 kts | 290° |
| 2026-05-08 22:07 | 46.90462 | 13.50465 | 39206 ft | 411 kts | 290° |
| 2026-05-08 22:08 | 46.92671 | 13.42664 | 39280 ft | 418 kts | 290° |
| 2026-05-08 22:08 | 46.94912 | 13.34752 | 39384 ft | 424 kts | 290° |
| 2026-05-08 22:09 | 46.97184 | 13.26709 | 39449 ft | 431 kts | 290° |
| 2026-05-08 22:09 | 46.99489 | 13.18523 | 39519 ft | 438 kts | 290° |
| 2026-05-08 22:10 | 47.01816 | 13.10234 | 39666 ft | 441 kts | 290° |
| 2026-05-08 22:10 | 47.02963 | 13.06135 | 39788 ft | 440 kts | 290° |
| 2026-05-08 22:10 | 47.03964 | 13.01911 | 39887 ft | 438 kts | 281° |
| 2026-05-08 22:10 | 47.04541 | 12.97486 | 40010 ft | 437 kts | 278° |
| 2026-05-08 22:11 | 47.05027 | 12.93150 | 40080 ft | 437 kts | 278° |
| 2026-05-08 22:11 | 47.05986 | 12.84355 | 40100 ft | 440 kts | 278° |
| 2026-05-08 22:12 | 47.06973 | 12.75497 | 40108 ft | 440 kts | 278° |
| 2026-05-08 22:12 | 47.07977 | 12.66655 | 40122 ft | 439 kts | 278° |
| 2026-05-08 22:13 | 47.08983 | 12.57802 | 40115 ft | 440 kts | 278° |
| 2026-05-08 22:13 | 47.09985 | 12.48924 | 40102 ft | 441 kts | 278° |
| 2026-05-08 22:14 | 47.10981 | 12.40038 | 40110 ft | 441 kts | 278° |
| 2026-05-08 22:14 | 47.11969 | 12.31163 | 40114 ft | 440 kts | 278° |
| 2026-05-08 22:15 | 47.12949 | 12.22284 | 40100 ft | 440 kts | 278° |
| 2026-05-08 22:15 | 47.13920 | 12.13424 | 40093 ft | 439 kts | 278° |
| 2026-05-08 22:16 | 47.14880 | 12.04608 | 40104 ft | 437 kts | 278° |
| 2026-05-08 22:16 | 47.15830 | 11.95801 | 40110 ft | 436 kts | 278° |
| 2026-05-08 22:17 | 47.16772 | 11.87012 | 40096 ft | 434 kts | 277° |
| 2026-05-08 22:17 | 47.17704 | 11.78250 | 40103 ft | 433 kts | 277° |
| 2026-05-08 22:18 | 47.18627 | 11.69510 | 40098 ft | 432 kts | 277° |
| 2026-05-08 22:18 | 47.19542 | 11.60775 | 40099 ft | 432 kts | 277° |
| 2026-05-08 22:19 | 47.20449 | 11.52051 | 40078 ft | 431 kts | 277° |
| 2026-05-08 22:19 | 47.21342 | 11.43400 | 40107 ft | 431 kts | 277° |
| 2026-05-08 22:20 | 47.22235 | 11.34681 | 40090 ft | 431 kts | 277° |
| 2026-05-08 22:20 | 47.23128 | 11.25889 | 40101 ft | 431 kts | 277° |
| 2026-05-08 22:21 | 47.24002 | 11.17217 | 40106 ft | 432 kts | 277° |
| 2026-05-08 22:21 | 47.24878 | 11.08454 | 40099 ft | 433 kts | 277° |
| 2026-05-08 22:22 | 47.25314 | 11.04071 | 40102 ft | 434 kts | 277° |
| 2026-05-08 22:22 | 47.26179 | 10.95334 | 40100 ft | 435 kts | 277° |
| 2026-05-08 22:23 | 47.27041 | 10.86533 | 40095 ft | 435 kts | 277° |
| 2026-05-08 22:23 | 47.27899 | 10.77708 | 40102 ft | 436 kts | 277° |
| 2026-05-08 22:24 | 47.28751 | 10.68867 | 40098 ft | 436 kts | 277° |
| 2026-05-08 22:24 | 47.29596 | 10.60037 | 40127 ft | 436 kts | 277° |
| 2026-05-08 22:25 | 47.30435 | 10.51191 | 40115 ft | 436 kts | 277° |
| 2026-05-08 22:25 | 47.31268 | 10.42341 | 40105 ft | 436 kts | 277° |
| 2026-05-08 22:26 | 47.32092 | 10.33484 | 40107 ft | 436 kts | 277° |
| 2026-05-08 22:26 | 47.32911 | 10.24627 | 40102 ft | 436 kts | 277° |
| 2026-05-08 22:27 | 47.33718 | 10.15828 | 40100 ft | 436 kts | 276° |
| 2026-05-08 22:27 | 47.34521 | 10.06983 | 40090 ft | 435 kts | 276° |
| 2026-05-08 22:28 | 47.35318 | 9.98130 | 40092 ft | 435 kts | 276° |
| 2026-05-08 22:28 | 47.36107 | 9.89285 | 40086 ft | 435 kts | 276° |
| 2026-05-08 22:29 | 47.36891 | 9.80435 | 40092 ft | 435 kts | 276° |
| 2026-05-08 22:29 | 47.37666 | 9.71587 | 40106 ft | 435 kts | 276° |
| 2026-05-08 22:30 | 47.38434 | 9.62751 | 40098 ft | 435 kts | 276° |
| 2026-05-08 22:30 | 47.39068 | 9.55386 | 40100 ft | 435 kts | 276° |
| 2026-05-08 22:31 | 47.39824 | 9.46536 | 40106 ft | 434 kts | 276° |
| 2026-05-08 22:31 | 47.40573 | 9.37685 | 40099 ft | 435 kts | 276° |
| 2026-05-08 22:32 | 47.41315 | 9.28837 | 40093 ft | 435 kts | 276° |
| 2026-05-08 22:32 | 47.42051 | 9.19967 | 40094 ft | 435 kts | 276° |
| 2026-05-08 22:33 | 47.42780 | 9.11103 | 40094 ft | 435 kts | 276° |
| 2026-05-08 22:33 | 47.43457 | 9.02790 | 40098 ft | 435 kts | 276° |
| 2026-05-08 22:34 | 47.44122 | 8.94552 | 40103 ft | 435 kts | 276° |
| 2026-05-08 22:34 | 47.45943 | 8.71649 | 40080 ft | 435 kts | 276° |
| 2026-05-08 22:35 | 47.46614 | 8.63032 | 40099 ft | 434 kts | 275° |
| 2026-05-08 22:35 | 47.47281 | 8.54359 | 40108 ft | 434 kts | 275° |
| 2026-05-08 22:36 | 47.47965 | 8.45429 | 40103 ft | 434 kts | 276° |
| 2026-05-08 22:36 | 47.49363 | 8.36799 | 40112 ft | 435 kts | 284° |
| 2026-05-08 22:37 | 47.51085 | 8.28222 | 40106 ft | 435 kts | 285° |
| 2026-05-08 22:37 | 47.52792 | 8.19622 | 40103 ft | 435 kts | 284° |
| 2026-05-08 22:38 | 47.54459 | 8.11009 | 40105 ft | 435 kts | 284° |
| 2026-05-08 22:38 | 47.56104 | 8.02383 | 40104 ft | 436 kts | 284° |
| 2026-05-08 22:39 | 47.57741 | 7.93747 | 40102 ft | 436 kts | 284° |
| 2026-05-08 22:39 | 47.59373 | 7.85094 | 40099 ft | 436 kts | 284° |
| 2026-05-08 22:40 | 47.61000 | 7.76429 | 40102 ft | 436 kts | 284° |
| 2026-05-08 22:40 | 47.62620 | 7.67769 | 40101 ft | 436 kts | 284° |
| 2026-05-08 22:41 | 47.64233 | 7.59104 | 40104 ft | 436 kts | 284° |
| 2026-05-08 22:41 | 47.65839 | 7.50433 | 40099 ft | 436 kts | 283° |
| 2026-05-08 22:42 | 47.67439 | 7.41760 | 40104 ft | 436 kts | 283° |
| 2026-05-08 22:42 | 47.69031 | 7.33084 | 40094 ft | 436 kts | 283° |
| 2026-05-08 22:43 | 47.70619 | 7.24392 | 40091 ft | 436 kts | 283° |
| 2026-05-08 22:43 | 47.72200 | 7.15695 | 40089 ft | 436 kts | 283° |
| 2026-05-08 22:44 | 47.73774 | 7.06997 | 40091 ft | 436 kts | 283° |
| 2026-05-08 22:44 | 47.75344 | 6.98279 | 40093 ft | 437 kts | 283° |
| 2026-05-08 22:45 | 47.76898 | 6.89605 | 40096 ft | 437 kts | 283° |
| 2026-05-08 22:45 | 47.78467 | 6.80809 | 40095 ft | 438 kts | 283° |
| 2026-05-08 22:46 | 47.80010 | 6.72113 | 40093 ft | 438 kts | 283° |
| 2026-05-08 22:46 | 47.81559 | 6.63343 | 40093 ft | 438 kts | 283° |
| 2026-05-08 22:47 | 47.83102 | 6.54564 | 40092 ft | 438 kts | 283° |
| 2026-05-08 22:47 | 47.84637 | 6.45783 | 40089 ft | 439 kts | 283° |
| 2026-05-08 22:48 | 47.86168 | 6.36988 | 40082 ft | 438 kts | 283° |
| 2026-05-08 22:48 | 47.87689 | 6.28202 | 40084 ft | 438 kts | 283° |
| 2026-05-08 22:49 | 47.89204 | 6.19412 | 40085 ft | 438 kts | 283° |
| 2026-05-08 22:49 | 47.92494 | 6.06705 | 39917 ft | 442 kts | 294° |
| 2026-05-08 22:50 | 47.93844 | 6.02578 | 39665 ft | 442 kts | 294° |
| 2026-05-08 22:50 | 47.95179 | 5.98485 | 39445 ft | 438 kts | 294° |
| 2026-05-08 22:50 | 47.96501 | 5.94401 | 39221 ft | 435 kts | 293° |
| 2026-05-08 22:50 | 47.97807 | 5.90335 | 39007 ft | 435 kts | 293° |
| 2026-05-08 22:51 | 47.99107 | 5.86261 | 38784 ft | 434 kts | 293° |
| 2026-05-08 22:51 | 48.00396 | 5.82201 | 38518 ft | 433 kts | 293° |
| 2026-05-08 22:51 | 48.01682 | 5.78139 | 38247 ft | 432 kts | 293° |
| 2026-05-08 22:51 | 48.02964 | 5.74079 | 37973 ft | 432 kts | 293° |
| 2026-05-08 22:52 | 48.04243 | 5.70022 | 37702 ft | 431 kts | 293° |
| 2026-05-08 22:52 | 48.05519 | 5.65967 | 37447 ft | 431 kts | 293° |
| 2026-05-08 22:52 | 48.06791 | 5.61918 | 37180 ft | 431 kts | 293° |
| 2026-05-08 22:52 | 48.08066 | 5.57858 | 36912 ft | 431 kts | 292° |
| 2026-05-08 22:53 | 48.09326 | 5.53834 | 36442 ft | 436 kts | 292° |
| 2026-05-08 22:53 | 48.10622 | 5.49686 | 35751 ft | 443 kts | 292° |
| 2026-05-08 22:53 | 48.11920 | 5.45530 | 35098 ft | 439 kts | 292° |
| 2026-05-08 22:53 | 48.13204 | 5.41417 | 34448 ft | 435 kts | 292° |
| 2026-05-08 22:54 | 48.14479 | 5.37325 | 33767 ft | 431 kts | 292° |
| 2026-05-08 22:54 | 48.15742 | 5.33266 | 33036 ft | 429 kts | 292° |
| 2026-05-08 22:54 | 48.16994 | 5.29229 | 32329 ft | 429 kts | 293° |
| 2026-05-08 22:54 | 48.18271 | 5.25103 | 31649 ft | 442 kts | 293° |
| 2026-05-08 22:55 | 48.19572 | 5.20887 | 30975 ft | 449 kts | 293° |
| 2026-05-08 22:55 | 48.20880 | 5.16652 | 30588 ft | 444 kts | 293° |
| 2026-05-08 22:55 | 48.22175 | 5.12455 | 30269 ft | 444 kts | 293° |
| 2026-05-08 22:55 | 48.23469 | 5.08251 | 29887 ft | 445 kts | 293° |
| 2026-05-08 22:56 | 48.24763 | 5.04041 | 29488 ft | 445 kts | 293° |
| 2026-05-08 22:56 | 48.26055 | 4.99830 | 29091 ft | 444 kts | 293° |
| 2026-05-08 22:56 | 48.27347 | 4.95611 | 28706 ft | 444 kts | 293° |
| 2026-05-08 22:56 | 48.28632 | 4.91406 | 28297 ft | 443 kts | 293° |
| 2026-05-08 22:57 | 48.29912 | 4.87210 | 27895 ft | 441 kts | 293° |
| 2026-05-08 22:57 | 48.31192 | 4.83008 | 27463 ft | 448 kts | 293° |
| 2026-05-08 22:57 | 48.32503 | 4.78693 | 26875 ft | 456 kts | 293° |
| 2026-05-08 22:57 | 48.33812 | 4.74380 | 26310 ft | 451 kts | 293° |
| 2026-05-08 22:58 | 48.35106 | 4.70112 | 25741 ft | 446 kts | 293° |
| 2026-05-08 22:58 | 48.36386 | 4.65883 | 25217 ft | 443 kts | 293° |
| 2026-05-08 22:58 | 48.37653 | 4.61687 | 24719 ft | 450 kts | 293° |
| 2026-05-08 22:58 | 48.38966 | 4.57330 | 24242 ft | 451 kts | 293° |
| 2026-05-08 22:59 | 48.40238 | 4.53103 | 23780 ft | 447 kts | 293° |
| 2026-05-08 22:59 | 48.41514 | 4.48858 | 23255 ft | 444 kts | 293° |
| 2026-05-08 22:59 | 48.42784 | 4.44625 | 22704 ft | 442 kts | 293° |
| 2026-05-08 22:59 | 48.44043 | 4.40420 | 22168 ft | 439 kts | 293° |
| 2026-05-08 23:00 | 48.45291 | 4.36245 | 21642 ft | 436 kts | 293° |
| 2026-05-08 23:00 | 48.46531 | 4.32088 | 21113 ft | 433 kts | 293° |
| 2026-05-08 23:00 | 48.47762 | 4.27956 | 20646 ft | 430 kts | 292° |
| 2026-05-08 23:00 | 48.48974 | 4.23883 | 20385 ft | 422 kts | 292° |
| 2026-05-08 23:01 | 48.50166 | 4.19867 | 20136 ft | 420 kts | 292° |
| 2026-05-08 23:01 | 48.51361 | 4.15833 | 19892 ft | 424 kts | 292° |
| 2026-05-08 23:01 | 48.52561 | 4.11775 | 19649 ft | 423 kts | 292° |
| 2026-05-08 23:01 | 48.53755 | 4.07735 | 19404 ft | 420 kts | 292° |
| 2026-05-08 23:02 | 48.54941 | 4.03712 | 19165 ft | 419 kts | 292° |
| 2026-05-08 23:02 | 48.56122 | 3.99702 | 18928 ft | 418 kts | 292° |
| 2026-05-08 23:02 | 48.57298 | 3.95701 | 18690 ft | 417 kts | 292° |
| 2026-05-08 23:02 | 48.58470 | 3.91709 | 18458 ft | 416 kts | 292° |
| 2026-05-08 23:03 | 48.59639 | 3.87715 | 18197 ft | 415 kts | 292° |
| 2026-05-08 23:03 | 48.60804 | 3.83735 | 17923 ft | 413 kts | 292° |
| 2026-05-08 23:03 | 48.61962 | 3.79770 | 17654 ft | 411 kts | 292° |
| 2026-05-08 23:03 | 48.63113 | 3.75822 | 17388 ft | 410 kts | 292° |
| 2026-05-08 23:04 | 48.64258 | 3.71888 | 17126 ft | 409 kts | 292° |
| 2026-05-08 23:04 | 48.65402 | 3.67951 | 16867 ft | 408 kts | 292° |
| 2026-05-08 23:04 | 48.66540 | 3.64027 | 16612 ft | 407 kts | 292° |
| 2026-05-08 23:04 | 48.67677 | 3.60103 | 16352 ft | 407 kts | 292° |
| 2026-05-08 23:05 | 48.68793 | 3.56245 | 16106 ft | 406 kts | 292° |
| 2026-05-08 23:05 | 48.69922 | 3.52334 | 15847 ft | 405 kts | 292° |
| 2026-05-08 23:05 | 48.71047 | 3.48432 | 15596 ft | 404 kts | 292° |
| 2026-05-08 23:05 | 48.72167 | 3.44538 | 15349 ft | 403 kts | 292° |
| 2026-05-08 23:06 | 48.73283 | 3.40656 | 15100 ft | 401 kts | 292° |
| 2026-05-08 23:06 | 48.74396 | 3.36777 | 14853 ft | 400 kts | 292° |
| 2026-05-08 23:06 | 48.75500 | 3.32921 | 14604 ft | 399 kts | 292° |
| 2026-05-08 23:06 | 48.76601 | 3.29069 | 14361 ft | 398 kts | 292° |
| 2026-05-08 23:07 | 48.77699 | 3.25224 | 14128 ft | 397 kts | 292° |
| 2026-05-08 23:07 | 48.78792 | 3.21389 | 13888 ft | 396 kts | 292° |
| 2026-05-08 23:07 | 48.79882 | 3.17559 | 13626 ft | 395 kts | 292° |
| 2026-05-08 23:07 | 48.80968 | 3.13737 | 13357 ft | 394 kts | 292° |
| 2026-05-08 23:08 | 48.82048 | 3.09932 | 13097 ft | 393 kts | 292° |
| 2026-05-08 23:08 | 48.83126 | 3.06128 | 12833 ft | 391 kts | 291° |
| 2026-05-08 23:08 | 48.84213 | 3.02350 | 12571 ft | 390 kts | 294° |
| 2026-05-08 23:08 | 48.85757 | 2.98975 | 12294 ft | 392 kts | 311° |
| 2026-05-08 23:09 | 48.87389 | 2.96453 | 12095 ft | 390 kts | 312° |
| 2026-05-08 23:09 | 48.89259 | 2.93453 | 11832 ft | 388 kts | 311° |
| 2026-05-08 23:09 | 48.91084 | 2.90438 | 11585 ft | 385 kts | 310° |
| 2026-05-08 23:09 | 48.92557 | 2.87542 | 11320 ft | 372 kts | 296° |
| 2026-05-08 23:10 | 48.93408 | 2.83941 | 11084 ft | 355 kts | 280° |
| 2026-05-08 23:10 | 48.93559 | 2.80280 | 10832 ft | 341 kts | 266° |
| 2026-05-08 23:10 | 48.93386 | 2.76764 | 10685 ft | 327 kts | 264° |
| 2026-05-08 23:10 | 48.93250 | 2.74517 | 10600 ft | 318 kts | 264° |
| 2026-05-08 23:11 | 48.93000 | 2.70460 | 10411 ft | 305 kts | 264° |
| 2026-05-08 23:11 | 48.92813 | 2.67310 | 10260 ft | 295 kts | 264° |
| 2026-05-08 23:11 | 48.92638 | 2.64250 | 10129 ft | 285 kts | 264° |
| 2026-05-08 23:11 | 48.92474 | 2.61297 | 9953 ft | 278 kts | 264° |
| 2026-05-08 23:12 | 48.92313 | 2.58378 | 9703 ft | 276 kts | 264° |
| 2026-05-08 23:12 | 48.92155 | 2.55483 | 9373 ft | 274 kts | 264° |
| 2026-05-08 23:12 | 48.91998 | 2.52606 | 9056 ft | 272 kts | 264° |
| 2026-05-08 23:12 | 48.91945 | 2.51644 | 8949 ft | 272 kts | 264° |
| 2026-05-08 23:13 | 48.91824 | 2.49437 | 8704 ft | 270 kts | 265° |
| 2026-05-08 23:13 | 48.91667 | 2.46587 | 8395 ft | 269 kts | 265° |
| 2026-05-08 23:13 | 48.91508 | 2.43760 | 8088 ft | 268 kts | 265° |
| 2026-05-08 23:13 | 48.91352 | 2.40945 | 7789 ft | 267 kts | 265° |
| 2026-05-08 23:14 | 48.91203 | 2.38124 | 7486 ft | 267 kts | 265° |
| 2026-05-08 23:14 | 48.91062 | 2.35317 | 7184 ft | 266 kts | 266° |
| 2026-05-08 23:14 | 48.90928 | 2.32501 | 6888 ft | 266 kts | 266° |
| 2026-05-08 23:14 | 48.90803 | 2.29695 | 6592 ft | 266 kts | 267° |
| 2026-05-08 23:15 | 48.90686 | 2.26890 | 6291 ft | 266 kts | 267° |
| 2026-05-08 23:15 | 48.90561 | 2.24086 | 5980 ft | 266 kts | 266° |
| 2026-05-08 23:15 | 48.90415 | 2.21284 | 5677 ft | 266 kts | 266° |
| 2026-05-08 23:15 | 48.90276 | 2.18479 | 5363 ft | 266 kts | 270° |
| 2026-05-08 23:16 | 48.90768 | 2.15819 | 5034 ft | 264 kts | 305° |
| 2026-05-08 23:16 | 48.92133 | 2.14021 | 4729 ft | 262 kts | 335° |
| 2026-05-08 23:16 | 48.93884 | 2.13390 | 4435 ft | 260 kts | 1° |
| 2026-05-08 23:16 | 48.95628 | 2.13985 | 4130 ft | 259 kts | 27° |
| 2026-05-08 23:17 | 48.97019 | 2.15621 | 4021 ft | 248 kts | 50° |
| 2026-05-08 23:17 | 48.98025 | 2.17670 | 3990 ft | 236 kts | 56° |
| 2026-05-08 23:17 | 48.98922 | 2.19694 | 3980 ft | 227 kts | 57° |
| 2026-05-08 23:17 | 48.99801 | 2.21674 | 3988 ft | 225 kts | 56° |
| 2026-05-08 23:18 | 49.00628 | 2.23698 | 3982 ft | 226 kts | 69° |
| 2026-05-08 23:18 | 49.00999 | 2.26051 | 3835 ft | 234 kts | 80° |
| 2026-05-08 23:18 | 49.01241 | 2.28529 | 3533 ft | 237 kts | 84° |
| 2026-05-08 23:18 | 49.01384 | 2.30986 | 3215 ft | 227 kts | 86° |
| 2026-05-08 23:19 | 49.01495 | 2.33286 | 2903 ft | 208 kts | 86° |
| 2026-05-08 23:19 | 49.01597 | 2.35356 | 2638 ft | 189 kts | 86° |
| 2026-05-08 23:19 | 49.01692 | 2.37248 | 2420 ft | 168 kts | 86° |
| 2026-05-08 23:19 | 49.01778 | 2.38928 | 2180 ft | 150 kts | 86° |
| 2026-05-08 23:20 | 49.01852 | 2.40481 | 1932 ft | 145 kts | 87° |
| 2026-05-08 23:20 | 49.01928 | 2.41979 | 1752 ft | 140 kts | 86° |
| 2026-05-08 23:20 | 49.02004 | 2.43459 | 1549 ft | 141 kts | 87° |
| 2026-05-08 23:20 | 49.02067 | 2.44973 | 1318 ft | 144 kts | 86° |
| 2026-05-08 23:21 | 49.02147 | 2.46475 | 1173 ft | 141 kts | 86° |
| 2026-05-08 23:21 | 49.02212 | 2.47975 | 983 ft | 142 kts | 85° |
| 2026-05-08 23:21 | 49.02310 | 2.49442 | 808 ft | 138 kts | 83° |
| 2026-05-08 23:21 | 49.02355 | 2.50351 | 673 ft | 139 kts | 84° |
| 2026-05-08 23:22 | 49.02436 | 2.51808 | 477 ft | 139 kts | 83° |
| 2026-05-08 23:22 | 49.02513 | 2.53281 | 360 ft | 131 kts | 83° |
| 2026-05-08 23:22 | 49.02579 | 2.54452 | 358 ft | 85 kts | 84° |
| 2026-05-08 23:22 | 49.02604 | 2.55062 | 359 ft | 43 kts | 94° |
| 2026-05-08 23:23 | 49.02525 | 2.55439 | 354 ft | 27 kts | 116° |
| 2026-05-08 23:23 | 49.02470 | 2.55589 | 362 ft | 14 kts | 137° |
| 2026-05-08 23:23 | 49.02377 | 2.55617 | 355 ft | 13 kts | 175° |
| 2026-05-08 23:23 | 49.02286 | 2.55630 | 353 ft | 13 kts | 175° |
| 2026-05-08 23:24 | 49.02197 | 2.55641 | 358 ft | 13 kts | 175° |
| 2026-05-08 23:24 | 49.02110 | 2.55638 | 358 ft | 13 kts | 197° |
| 2026-05-08 23:24 | 49.02066 | 2.55528 | 358 ft | 14 kts | 263° |
| 2026-05-08 23:24 | 49.02054 | 2.55324 | 354 ft | 25 kts | 266° |
| 2026-05-08 23:25 | 49.02041 | 2.55042 | 359 ft | 26 kts | 262° |
| 2026-05-08 23:25 | 49.01950 | 2.54844 | 356 ft | 24 kts | 186° |
| 2026-05-08 23:25 | 49.01793 | 2.54858 | 354 ft | 22 kts | 176° |
| 2026-05-08 23:25 | 49.01642 | 2.54880 | 354 ft | 21 kts | 174° |
| 2026-05-08 23:26 | 49.01496 | 2.54895 | 356 ft | 21 kts | 175° |
| 2026-05-08 23:26 | 49.01355 | 2.54935 | 354 ft | 20 kts | 164° |
| 2026-05-08 23:26 | 49.01247 | 2.54987 | 359 ft | 12 kts | 146° |
| 2026-05-08 23:26 | 49.01240 | 2.55092 | 361 ft | 10 kts | 81° |
| 2026-05-08 23:27 | 49.01269 | 2.55186 | 359 ft | 10 kts | 43° |
| 2026-05-08 23:27 | 49.01345 | 2.55217 | 356 ft | 15 kts | 350° |
| 2026-05-08 23:27 | 49.01414 | 2.55135 | 361 ft | 13 kts | 265° |
| 2026-05-08 23:27 | 49.01410 | 2.55056 | 354 ft | 0 kts | 266° |